createdAt,value
2019-04-05T00:00:22.532Z,34.67
2019-04-05T00:02:49.127Z,35.83
2019-04-05T00:05:16.124Z,35.57
2019-04-05T00:07:42.977Z,33.20
2019-04-05T00:10:10.834Z,35.07
2019-04-05T00:12:37.724Z,33.17
2019-04-05T00:15:14.604Z,35.10
2019-04-05T00:17:33.227Z,35.67
2019-04-05T00:20:03.290Z,34.63
2019-04-05T00:22:29.858Z,37.60
2019-04-05T00:24:56.458Z,35.67
2019-04-05T00:27:22.988Z,35.33
2019-04-05T00:29:56.228Z,34.03
2019-04-05T00:32:22.749Z,35.10
2019-04-05T00:34:50.510Z,35.07
2019-04-05T00:37:17.718Z,33.53
2019-04-05T00:39:44.285Z,36.67
2019-04-05T00:42:12.225Z,36.37
2019-04-05T00:44:38.732Z,36.27
2019-04-05T00:47:05.338Z,37.80
2019-04-05T00:49:32.001Z,38.80
2019-04-05T00:52:00.030Z,38.90
2019-04-05T00:54:26.893Z,37.37
2019-04-05T00:56:53.563Z,35.57
2019-04-05T00:59:20.642Z,34.53
2019-04-05T01:01:48.640Z,34.27
2019-04-05T01:04:15.364Z,33.63
2019-04-05T01:06:41.936Z,33.93
2019-04-05T01:09:08.609Z,35.37
2019-04-05T01:11:36.256Z,35.40
2019-04-05T01:14:03.134Z,36.63
2019-04-05T01:16:29.743Z,38.33
2019-04-05T01:18:56.619Z,35.20
2019-04-05T01:21:23.979Z,37.47
2019-04-05T01:23:51.837Z,35.67
2019-04-05T01:26:18.490Z,34.70
2019-04-05T01:28:50.831Z,36.47
2019-04-05T01:31:17.349Z,35.20
2019-04-05T01:33:43.996Z,36.07
2019-04-05T01:36:10.522Z,36.60
2019-04-05T01:38:37.247Z,36.20
2019-04-05T01:41:03.825Z,36.20
2019-04-05T01:43:30.733Z,34.13
2019-04-05T01:45:58.204Z,35.40
2019-04-05T01:48:24.976Z,34.60
2019-04-05T01:50:51.968Z,34.87
2019-04-05T01:53:18.480Z,34.60
2019-04-05T01:55:45.118Z,33.17
2019-04-05T01:58:11.703Z,33.40
2019-04-05T02:00:45.845Z,30.80
2019-04-05T02:03:12.785Z,29.90
2019-04-05T02:05:39.481Z,30.60
2019-04-05T02:08:06.144Z,30.77
2019-04-05T02:10:32.808Z,28.77
2019-04-05T02:12:59.468Z,30.77
2019-04-05T02:15:28.344Z,29.70
2019-04-05T02:17:55.531Z,29.80
2019-04-05T02:20:25.585Z,29.77
2019-04-05T02:22:52.854Z,28.10
2019-04-05T02:25:19.738Z,29.40
2019-04-05T02:27:46.390Z,28.00
2019-04-05T02:30:14.474Z,29.07
2019-04-05T02:32:41.153Z,28.53
2019-04-05T02:35:07.868Z,29.97
2019-04-05T02:37:34.567Z,28.80
2019-04-05T02:40:01.339Z,28.17
2019-04-05T02:42:28.346Z,27.97
2019-04-05T02:44:55.481Z,26.67
2019-04-05T02:47:24.463Z,26.67
2019-04-05T02:49:53.965Z,28.00
2019-04-05T02:52:25.381Z,26.47
2019-04-05T02:54:51.083Z,30.03
2019-04-05T02:57:17.829Z,28.50
2019-04-05T02:59:44.787Z,26.03
2019-04-05T03:02:13.919Z,26.17
2019-04-05T03:04:40.586Z,25.93
2019-04-05T03:07:07.454Z,27.57
2019-04-05T03:09:34.294Z,26.63
2019-04-05T03:12:01.280Z,27.40
2019-04-05T03:14:28.541Z,27.03
2019-04-05T03:16:55.072Z,27.40
2019-04-05T03:19:28.506Z,27.43
2019-04-05T03:22:00.788Z,27.83
2019-04-05T03:24:28.949Z,27.83
2019-04-05T03:27:01.873Z,28.43
2019-04-05T03:29:28.655Z,30.63
2019-04-05T03:31:55.641Z,29.90
2019-04-05T03:34:22.309Z,27.50
2019-04-05T03:36:57.610Z,27.00
2019-04-05T03:39:24.268Z,27.13
2019-04-05T03:41:52.054Z,29.53
2019-04-05T03:44:22.812Z,27.23
2019-04-05T03:46:56.799Z,27.13
2019-04-05T03:49:23.633Z,25.80
2019-04-05T03:51:51.053Z,27.83
2019-04-05T03:54:17.662Z,27.63
2019-04-05T03:56:44.330Z,26.53
2019-04-05T03:59:11.213Z,28.23
2019-04-05T04:01:38.265Z,29.33
2019-04-05T04:04:08.958Z,27.03
2019-04-05T04:06:35.766Z,27.17
2019-04-05T04:09:03.832Z,27.27
2019-04-05T04:11:30.671Z,30.10
2019-04-05T04:13:57.939Z,28.00
2019-04-05T04:16:24.985Z,27.77
2019-04-05T04:18:54.160Z,26.73
2019-04-05T04:22:01.246Z,27.93
2019-04-05T04:24:28.300Z,26.50
2019-04-05T04:26:55.473Z,26.03
2019-04-05T04:29:23.658Z,27.27
2019-04-05T04:31:50.142Z,27.20
2019-04-05T04:34:16.939Z,26.50
2019-04-05T04:36:43.652Z,26.80
2019-04-05T04:39:10.359Z,27.87
2019-04-05T04:41:37.010Z,27.10
2019-04-05T04:44:03.627Z,26.87
2019-04-05T04:46:31.405Z,27.43
2019-04-05T04:48:57.976Z,28.17
2019-04-05T04:51:25.023Z,29.43
2019-04-05T04:53:51.734Z,26.33
2019-04-05T04:56:19.417Z,26.33
2019-04-05T04:58:46.451Z,26.33
2019-04-05T05:01:13.147Z,24.57
2019-04-05T05:03:39.879Z,27.33
2019-04-05T05:06:11.565Z,25.63
2019-04-05T05:08:38.711Z,24.90
2019-04-05T05:11:14.346Z,27.73
2019-04-05T05:13:34.666Z,27.97
2019-04-05T05:16:01.791Z,25.47
2019-04-05T05:18:29.932Z,27.07
2019-04-05T05:20:56.601Z,26.13
2019-04-05T05:23:23.769Z,27.00
2019-04-05T05:25:50.695Z,26.43
2019-04-05T05:28:17.293Z,24.97
2019-04-05T05:30:44.019Z,25.70
2019-04-05T05:33:10.893Z,27.80
2019-04-05T05:35:37.561Z,27.00
2019-04-05T05:38:04.340Z,26.40
2019-04-05T05:40:35.536Z,28.40
2019-04-05T05:43:02.713Z,28.10
2019-04-05T05:45:29.389Z,27.00
2019-04-05T05:47:56.099Z,26.83
2019-04-05T05:50:22.868Z,25.70
2019-04-05T05:52:49.489Z,25.50
2019-04-05T05:55:16.280Z,25.70
2019-04-05T05:57:42.773Z,27.33
2019-04-05T06:00:10.672Z,28.57
2019-04-05T06:02:38.758Z,30.40
2019-04-05T06:05:06.389Z,28.03
2019-04-05T06:07:33.177Z,25.90
2019-04-05T06:09:59.706Z,26.30
2019-04-05T06:12:26.579Z,26.47
2019-04-05T06:14:53.114Z,27.67
2019-04-05T06:17:19.911Z,28.23
2019-04-05T06:19:47.558Z,25.37
2019-04-05T06:22:14.156Z,26.90
2019-04-05T06:24:40.897Z,26.03
2019-04-05T06:27:07.459Z,25.90
2019-04-05T06:29:34.140Z,27.27
2019-04-05T06:32:00.766Z,25.87
2019-04-05T06:34:28.434Z,26.33
2019-04-05T06:36:55.314Z,26.67
2019-04-05T06:39:21.850Z,25.63
2019-04-05T06:41:49.495Z,25.50
2019-04-05T06:44:18.536Z,22.93
2019-04-05T06:46:45.119Z,25.47
2019-04-05T06:49:11.757Z,24.73
2019-04-05T06:51:40.272Z,25.57
2019-04-05T06:54:06.974Z,26.50
2019-04-05T06:56:34.987Z,22.90
2019-04-05T06:59:04.658Z,22.83
2019-04-05T07:01:36.930Z,24.83
2019-04-05T07:04:03.972Z,25.50
2019-04-05T07:06:30.530Z,24.33
2019-04-05T07:08:57.228Z,25.30
2019-04-05T07:11:26.269Z,25.23
2019-04-05T07:13:55.563Z,24.47
2019-04-05T07:16:22.322Z,25.37
2019-04-05T07:18:48.926Z,25.03
2019-04-05T07:21:17.353Z,25.70
2019-04-05T07:23:44.889Z,25.00
2019-04-05T07:26:12.624Z,25.60
2019-04-05T07:28:39.184Z,25.00
2019-04-05T07:31:05.893Z,26.03
2019-04-05T07:33:32.558Z,26.70
2019-04-05T07:35:59.749Z,22.60
2019-04-05T07:38:26.427Z,23.07
2019-04-05T07:40:52.981Z,21.80
2019-04-05T07:43:22.069Z,22.90
2019-04-05T07:45:49.078Z,23.43
2019-04-05T07:48:16.182Z,22.97
2019-04-05T07:50:44.103Z,24.57
2019-04-05T07:53:10.629Z,23.13
2019-04-05T07:55:38.374Z,21.50
2019-04-05T07:58:05.476Z,21.73
2019-04-05T08:00:44.971Z,23.77
2019-04-05T08:03:11.603Z,20.07
2019-04-05T08:05:38.496Z,20.07
2019-04-05T08:08:07.183Z,23.40
2019-04-05T08:10:35.861Z,22.73
2019-04-05T08:13:02.845Z,23.60
2019-04-05T08:15:29.545Z,22.33
2019-04-05T08:17:56.113Z,21.20
2019-04-05T08:20:25.144Z,21.80
2019-04-05T08:22:54.128Z,23.03
2019-04-05T08:25:20.989Z,20.77
2019-04-05T08:27:47.778Z,21.13
2019-04-05T08:30:14.334Z,21.40
2019-04-05T08:32:43.675Z,20.87
2019-04-05T08:35:11.655Z,22.50
2019-04-05T08:37:46.981Z,19.53
2019-04-05T08:40:26.365Z,21.30
2019-04-05T08:42:53.161Z,20.97
2019-04-05T08:45:20.961Z,20.67
2019-04-05T08:47:49.027Z,21.93
2019-04-05T08:50:15.915Z,21.53
2019-04-05T08:52:42.809Z,20.53
2019-04-05T08:55:10.781Z,21.57
2019-04-05T08:57:37.727Z,20.67
2019-04-05T09:00:04.623Z,20.07
2019-04-05T09:02:31.531Z,22.13
2019-04-05T09:04:58.168Z,21.33
2019-04-05T09:07:25.228Z,20.63
2019-04-05T09:09:53.297Z,20.67
2019-04-05T09:12:19.939Z,20.90
2019-04-05T09:14:46.722Z,21.20
2019-04-05T09:17:13.542Z,21.07
2019-04-05T09:19:40.418Z,21.87
2019-04-05T09:22:07.047Z,21.03
2019-04-05T09:24:33.610Z,22.47
2019-04-05T09:27:00.346Z,21.13
2019-04-05T09:29:26.949Z,21.50
2019-04-05T09:31:53.754Z,21.20
2019-04-05T09:34:23.124Z,21.50
2019-04-05T09:36:49.055Z,22.00
2019-04-05T09:39:16.727Z,20.93
2019-04-05T09:41:43.413Z,19.93
2019-04-05T09:44:09.975Z,20.93
2019-04-05T09:46:46.848Z,21.40
2019-04-05T09:49:06.654Z,22.57
2019-04-05T09:51:33.276Z,20.43
2019-04-05T09:54:00.173Z,21.70
2019-04-05T09:56:26.741Z,23.30
2019-04-05T09:58:53.427Z,21.93
2019-04-05T10:01:20.377Z,20.40
2019-04-05T10:03:47.261Z,20.73
2019-04-05T10:06:13.862Z,21.30
2019-04-05T10:08:40.479Z,20.40
2019-04-05T10:11:10.297Z,21.17
2019-04-05T10:13:36.834Z,19.63
2019-04-05T10:16:03.520Z,20.40
2019-04-05T10:18:30.140Z,20.80
2019-04-05T10:20:56.746Z,20.07
2019-04-05T10:23:23.356Z,20.23
2019-04-05T10:25:50.057Z,19.43
2019-04-05T10:28:38.116Z,19.97
2019-04-05T10:31:04.932Z,19.87
2019-04-05T10:33:31.732Z,19.27
2019-04-05T10:35:58.589Z,19.27
2019-04-05T10:38:25.150Z,19.23
2019-04-05T10:40:52.001Z,19.40
2019-04-05T10:43:18.577Z,18.13
2019-04-05T10:45:45.668Z,19.63
2019-04-05T10:48:12.594Z,18.10
2019-04-05T10:50:39.415Z,18.47
2019-04-05T10:53:18.157Z,19.60
2019-04-05T10:55:44.977Z,19.03
2019-04-05T10:58:11.884Z,20.17
2019-04-05T11:00:38.740Z,18.93
2019-04-05T11:03:05.280Z,19.43
2019-04-05T11:05:32.112Z,20.20
2019-04-05T11:07:59.511Z,19.13
2019-04-05T11:10:26.214Z,18.87
2019-04-05T11:12:52.793Z,20.40
2019-04-05T11:15:20.071Z,20.03
2019-04-05T11:17:46.696Z,19.47
2019-04-05T11:20:22.173Z,19.67
2019-04-05T11:22:50.177Z,17.87
2019-04-05T11:25:20.411Z,19.60
2019-04-05T11:27:46.067Z,17.73
2019-04-05T11:30:18.254Z,19.07
2019-04-05T11:32:45.501Z,17.93
2019-04-05T11:35:14.947Z,19.33
2019-04-05T11:37:40.658Z,18.53
2019-04-05T11:40:08.252Z,19.57
2019-04-05T11:42:36.562Z,19.13
2019-04-05T11:45:03.819Z,18.80
2019-04-05T11:47:30.750Z,18.30
2019-04-05T11:49:59.030Z,19.57
2019-04-05T11:52:25.655Z,19.80
2019-04-05T11:54:52.178Z,19.80
2019-04-05T11:57:19.035Z,19.80
2019-04-05T11:59:48.578Z,20.67
2019-04-05T12:02:22.632Z,21.00
2019-04-05T12:04:49.361Z,22.53
2019-04-05T12:07:15.914Z,21.73
2019-04-05T12:09:42.645Z,21.43
2019-04-05T12:12:11.689Z,21.07
2019-04-05T12:14:38.920Z,21.00
2019-04-05T12:17:09.636Z,20.87
2019-04-05T12:19:38.156Z,20.93
2019-04-05T12:22:05.861Z,21.87
2019-04-05T12:24:33.521Z,22.70
2019-04-05T12:27:00.262Z,22.37
2019-04-05T12:29:26.801Z,21.93
2019-04-05T12:31:53.958Z,21.17
2019-04-05T12:34:22.422Z,21.77
2019-04-05T12:36:50.530Z,21.73
2019-04-05T12:39:18.843Z,21.80
2019-04-05T12:41:45.792Z,21.17
2019-04-05T12:44:15.143Z,21.57
2019-04-05T12:46:40.885Z,20.70
2019-04-05T12:49:07.515Z,21.10
2019-04-05T12:51:35.872Z,20.57
2019-04-05T12:54:02.480Z,21.20
2019-04-05T12:56:29.072Z,22.20
2019-04-05T12:58:56.716Z,20.47
2019-04-05T13:01:23.654Z,21.87
2019-04-05T13:03:51.373Z,22.63
2019-04-05T13:06:19.847Z,25.57
2019-04-05T13:08:47.550Z,24.43
2019-04-05T13:11:14.229Z,23.90
2019-04-05T13:13:40.926Z,23.53
2019-04-05T13:16:09.806Z,23.33
2019-04-05T13:18:36.023Z,22.87
2019-04-05T13:21:14.286Z,23.90
2019-04-05T13:23:33.817Z,22.57
2019-04-05T13:26:01.484Z,22.60
2019-04-05T13:28:28.445Z,21.60
2019-04-05T13:30:55.686Z,21.73
2019-04-05T13:33:23.519Z,20.63
2019-04-05T13:35:50.772Z,20.73
2019-04-05T13:38:17.446Z,21.27
2019-04-05T13:40:44.158Z,21.03
2019-04-05T13:43:10.843Z,21.33
2019-04-05T13:45:39.131Z,21.33
2019-04-05T13:48:09.008Z,21.30
2019-04-05T13:50:35.329Z,21.10
2019-04-05T13:53:01.893Z,21.43
2019-04-05T13:55:28.693Z,23.03
2019-04-05T13:57:55.354Z,22.47
2019-04-05T14:00:22.145Z,21.33
2019-04-05T14:02:50.756Z,21.77
2019-04-05T14:05:17.575Z,22.07
2019-04-05T14:07:46.685Z,23.17
2019-04-05T14:10:13.855Z,22.33
2019-04-05T14:12:41.053Z,21.83
2019-04-05T14:15:10.854Z,22.77
2019-04-05T14:17:36.621Z,23.37
2019-04-05T14:20:04.749Z,23.47
2019-04-05T14:22:31.756Z,24.27
2019-04-05T14:25:00.058Z,24.93
2019-04-05T14:27:26.962Z,25.47
2019-04-05T14:29:53.574Z,26.10
2019-04-05T14:32:21.925Z,24.33
2019-04-05T14:34:48.918Z,25.03
2019-04-05T14:37:15.973Z,26.67
2019-04-05T14:39:48.867Z,25.73
2019-04-05T14:42:16.359Z,25.40
2019-04-05T14:44:42.948Z,24.90
2019-04-05T14:47:10.738Z,26.27
2019-04-05T14:49:40.550Z,26.07
2019-04-05T14:52:07.539Z,25.33
2019-04-05T14:54:34.329Z,26.00
2019-04-05T14:57:05.543Z,25.63
2019-04-05T14:59:37.644Z,25.70
2019-04-05T15:02:05.664Z,25.73
2019-04-05T15:04:34.277Z,24.67
2019-04-05T15:07:01.730Z,26.23
2019-04-05T15:09:28.518Z,25.23
2019-04-05T15:11:56.460Z,26.03
2019-04-05T15:14:25.754Z,25.10
2019-04-05T15:16:54.379Z,25.67
2019-04-05T15:19:21.636Z,25.80
2019-04-05T15:21:48.520Z,25.70
2019-04-05T15:24:17.193Z,26.17
2019-04-05T15:26:43.814Z,28.23
2019-04-05T15:29:13.948Z,26.27
2019-04-05T15:31:40.963Z,26.03
2019-04-05T15:34:07.616Z,28.67
2019-04-05T15:36:34.222Z,28.90
2019-04-05T15:39:01.615Z,28.93
2019-04-05T15:41:28.794Z,29.40
2019-04-05T15:43:55.939Z,29.27
2019-04-05T15:46:22.789Z,29.57
2019-04-05T15:48:51.520Z,29.30
2019-04-05T15:51:18.019Z,30.03
2019-04-05T15:53:44.906Z,28.87
2019-04-05T15:56:11.825Z,30.53
2019-04-05T15:58:38.415Z,31.63
2019-04-05T16:01:05.118Z,30.40
2019-04-05T16:03:33.026Z,31.97
2019-04-05T16:06:00.926Z,32.83
2019-04-05T16:08:27.820Z,38.53
2019-04-05T16:10:54.508Z,32.63
2019-04-05T16:13:21.073Z,33.50
2019-04-05T16:15:47.756Z,34.53
2019-04-05T16:18:15.969Z,34.23
2019-04-05T16:20:42.839Z,35.93
2019-04-05T16:23:09.861Z,36.83
2019-04-05T16:25:36.521Z,38.53
2019-04-05T16:28:03.590Z,38.03
2019-04-05T16:30:30.190Z,42.20
2019-04-05T16:32:56.933Z,41.30
2019-04-05T16:35:23.520Z,44.17
2019-04-05T16:37:50.276Z,42.90
2019-04-05T16:40:25.473Z,41.33
2019-04-05T16:43:01.894Z,44.50
2019-04-05T16:45:20.910Z,42.50
2019-04-05T16:47:50.370Z,44.90
2019-04-05T16:50:17.211Z,44.30
2019-04-05T16:52:45.479Z,45.00
2019-04-05T16:55:12.174Z,47.60
2019-04-05T16:57:39.107Z,47.37
2019-04-05T17:00:07.120Z,47.23
2019-04-05T17:02:33.710Z,48.00
2019-04-05T17:05:00.281Z,46.53
2019-04-05T17:07:26.926Z,45.53
2019-04-05T17:09:57.676Z,45.37
2019-04-05T17:12:24.241Z,46.13
2019-04-05T17:14:51.025Z,44.43
2019-04-05T17:17:17.586Z,46.90
2019-04-05T17:19:45.163Z,47.83
2019-04-05T17:22:11.792Z,47.63
2019-04-05T17:24:39.347Z,47.50
2019-04-05T17:27:06.238Z,46.60
2019-04-05T17:29:32.766Z,48.87
2019-04-05T17:31:59.679Z,48.43
2019-04-05T17:34:26.404Z,48.47
2019-04-05T17:36:52.920Z,47.47
2019-04-05T17:39:19.507Z,48.67
2019-04-05T17:41:50.375Z,48.50
2019-04-05T17:44:17.287Z,47.80
2019-04-05T17:46:46.045Z,47.23
2019-04-05T17:49:12.787Z,47.90
2019-04-05T17:51:39.507Z,46.13
2019-04-05T17:54:06.414Z,46.03
2019-04-05T17:56:34.450Z,45.00
2019-04-05T17:59:01.515Z,50.33
2019-04-05T18:01:28.140Z,45.37
2019-04-05T18:03:55.006Z,45.60
2019-04-05T18:06:21.907Z,44.87
2019-04-05T18:08:48.461Z,44.30
2019-04-05T18:11:15.440Z,46.23
2019-04-05T18:13:42.313Z,46.40
2019-04-05T18:16:09.411Z,46.63
2019-04-05T18:18:35.929Z,45.50
2019-04-05T18:21:02.484Z,43.83
2019-04-05T18:23:29.533Z,43.00
2019-04-05T18:25:56.081Z,44.30
2019-04-05T18:28:22.905Z,45.73
2019-04-05T18:30:49.643Z,43.63
2019-04-05T18:33:16.365Z,45.43
2019-04-05T18:35:43.124Z,44.00
2019-04-05T18:38:10.219Z,43.17
2019-04-05T18:40:40.611Z,45.77
2019-04-05T18:43:10.462Z,48.27
2019-04-05T18:45:40.216Z,45.67
2019-04-05T18:48:09.949Z,44.47
2019-04-05T18:50:40.380Z,44.67
2019-04-05T18:53:07.084Z,46.03
2019-04-05T18:55:33.844Z,43.83
2019-04-05T18:58:00.884Z,43.83
2019-04-05T19:00:30.558Z,45.97
2019-04-05T19:02:59.198Z,46.63
2019-04-05T19:05:29.198Z,48.37
2019-04-05T19:07:57.168Z,49.20
2019-04-05T19:10:36.249Z,48.90
2019-04-05T19:12:59.255Z,47.67
2019-04-05T19:15:25.472Z,47.77
2019-04-05T19:17:52.049Z,50.50
2019-04-05T19:20:19.511Z,46.30
2019-04-05T19:22:46.338Z,48.03
2019-04-05T19:25:13.657Z,48.23
2019-04-05T19:27:40.324Z,46.47
2019-04-05T19:50:01.601Z,50.80
2019-04-05T19:52:29.464Z,48.97
2019-04-05T19:54:57.130Z,47.40
2019-04-05T19:57:23.807Z,45.57
2019-04-05T19:59:51.280Z,46.37
2019-04-05T20:02:18.962Z,46.37
2019-04-05T20:04:46.214Z,44.53
2019-04-05T20:07:12.928Z,45.27
2019-04-05T20:09:39.527Z,46.63
2019-04-05T20:12:08.214Z,44.97
2019-04-05T20:15:03.956Z,43.03
2019-04-05T20:17:31.815Z,43.07
2019-04-05T20:19:58.348Z,42.87
2019-04-05T20:22:25.218Z,45.27
2019-04-05T20:24:53.109Z,44.30
2019-04-05T20:27:31.017Z,44.37
2019-04-05T20:29:58.704Z,42.97
2019-04-05T20:32:25.207Z,43.87
2019-04-05T20:34:51.697Z,41.73
2019-04-05T20:37:18.374Z,43.50
2019-04-05T20:39:44.965Z,45.60
2019-04-05T20:42:12.562Z,45.50
2019-04-05T20:44:39.138Z,46.07
2019-04-05T20:47:06.676Z,43.17
2019-04-05T20:49:35.436Z,44.90
2019-04-05T20:52:02.492Z,45.40
2019-04-05T20:54:29.282Z,46.23
2019-04-05T20:56:55.847Z,44.80
2019-04-05T20:59:22.415Z,42.73
2019-04-05T21:01:48.980Z,45.57
2019-04-05T21:04:17.589Z,47.20
2019-04-05T21:06:44.077Z,47.87
2019-04-05T21:09:12.634Z,52.77
2019-04-05T21:11:40.525Z,48.47
2019-04-05T21:14:07.691Z,49.27
2019-04-05T21:16:35.488Z,49.27
2019-04-05T21:19:02.024Z,45.63
2019-04-05T21:21:30.636Z,45.67
2019-04-05T21:23:57.602Z,47.60
2019-04-05T21:26:24.563Z,44.60
2019-04-05T21:28:51.235Z,46.83
2019-04-05T21:31:24.798Z,45.17
2019-04-05T21:33:51.682Z,48.37
2019-04-05T21:36:18.236Z,46.73
2019-04-05T21:38:44.837Z,52.70
2019-04-05T21:41:13.206Z,54.13
2019-04-05T21:43:39.832Z,50.87
2019-04-05T21:46:06.564Z,49.10
2019-04-05T21:48:33.252Z,48.83
2019-04-05T21:50:59.765Z,56.10
2019-04-05T21:53:26.299Z,53.17
2019-04-05T21:55:52.840Z,51.93
2019-04-05T21:58:19.387Z,56.47
2019-04-05T22:00:56.780Z,56.70
2019-04-05T22:03:23.739Z,52.37
2019-04-05T22:05:50.279Z,55.23
2019-04-05T22:08:17.198Z,59.33
2019-04-05T22:10:44.951Z,57.37
2019-04-05T22:13:15.723Z,52.17
2019-04-05T22:15:42.232Z,55.03
2019-04-05T22:18:09.801Z,53.20
2019-04-05T22:20:36.323Z,52.60
2019-04-05T22:23:02.808Z,48.90
2019-04-05T22:25:30.986Z,50.30
2019-04-05T22:27:57.515Z,48.90
2019-04-05T22:30:24.710Z,48.47
2019-04-05T22:32:51.340Z,49.93
2019-04-05T22:35:18.451Z,49.83
2019-04-05T22:37:48.309Z,49.33
2019-04-05T22:40:15.237Z,49.70
2019-04-05T22:42:41.772Z,48.73
2019-04-05T22:45:08.353Z,55.57
2019-04-05T22:47:34.860Z,48.90
2019-04-05T22:50:02.632Z,47.03
2019-04-05T22:52:31.232Z,46.20
2019-04-05T22:54:57.863Z,46.77
2019-04-05T22:57:24.494Z,51.53
2019-04-05T22:59:51.009Z,51.60
2019-04-05T23:02:17.801Z,48.83
2019-04-05T23:04:44.309Z,47.90
2019-04-05T23:07:10.812Z,48.70
2019-04-05T23:09:37.306Z,51.43
2019-04-05T23:12:10.218Z,48.33
2019-04-05T23:14:37.001Z,55.07
2019-04-05T23:17:04.015Z,55.80
2019-04-05T23:19:30.788Z,52.17
2019-04-05T23:21:57.356Z,52.03
2019-04-05T23:24:23.931Z,59.23
2019-04-05T23:26:50.714Z,61.30
2019-04-05T23:29:17.194Z,64.13
2019-04-05T23:31:44.056Z,65.57
2019-04-05T23:34:10.818Z,66.07
2019-04-05T23:36:37.375Z,65.77
2019-04-05T23:39:05.216Z,62.47
2019-04-05T23:41:32.763Z,61.80
2019-04-05T23:43:59.364Z,60.80
2019-04-05T23:46:25.835Z,57.67
2019-04-05T23:48:56.598Z,60.17
2019-04-05T23:51:23.112Z,62.33
2019-04-05T23:53:49.618Z,59.53
2019-04-05T23:56:16.165Z,62.03
2019-04-05T23:58:42.679Z,58.83
